createdAt,value
2018-04-02T00:03:03.414Z,5.20
2018-04-02T00:07:06.710Z,5.10
2018-04-02T00:11:09.240Z,5.10
2018-04-02T00:15:11.773Z,5.10
2018-04-02T00:19:14.297Z,5.10
2018-04-02T00:23:16.849Z,5.10
2018-04-02T00:27:20.154Z,5.00
2018-04-02T00:31:23.461Z,5.00
2018-04-02T00:35:26.761Z,5.00
2018-04-02T00:39:30.070Z,5.00
2018-04-02T00:43:32.581Z,4.90
2018-04-02T00:47:35.885Z,5.00
2018-04-02T00:51:38.852Z,5.00
2018-04-02T00:55:42.161Z,5.00
2018-04-02T00:59:45.462Z,5.00
2018-04-02T01:03:48.732Z,5.00
2018-04-02T01:07:51.265Z,5.00
2018-04-02T01:11:53.834Z,5.00
2018-04-02T01:15:57.145Z,5.00
2018-04-02T01:19:59.678Z,5.00
2018-04-02T01:24:02.233Z,5.00
2018-04-02T01:28:04.757Z,5.00
2018-04-02T01:32:07.294Z,5.00
2018-04-02T01:36:09.825Z,5.00
2018-04-02T01:40:12.358Z,5.00
2018-04-02T01:44:14.897Z,5.00
2018-04-02T01:48:17.412Z,5.00
2018-04-02T01:52:20.712Z,5.00
2018-04-02T01:56:24.026Z,5.00
2018-04-02T02:00:27.321Z,5.10
2018-04-02T02:04:30.957Z,5.00
2018-04-02T02:08:33.469Z,5.00
2018-04-02T02:12:36.006Z,5.00
2018-04-02T02:16:39.304Z,5.00
2018-04-02T02:20:42.611Z,5.00
2018-04-02T02:24:45.911Z,5.00
2018-04-02T02:28:49.189Z,5.00
2018-04-02T02:32:51.722Z,5.00
2018-04-02T02:36:54.261Z,5.00
2018-04-02T02:40:56.796Z,5.00
2018-04-02T02:44:59.332Z,5.00
2018-04-02T02:49:01.860Z,5.00
2018-04-02T02:53:04.390Z,5.00
2018-04-02T02:57:06.925Z,5.00
2018-04-02T03:01:09.469Z,5.00
2018-04-02T03:05:12.014Z,4.90
2018-04-02T03:09:14.531Z,4.90
2018-04-02T03:13:17.069Z,4.90
2018-04-02T03:17:19.596Z,4.90
2018-04-02T03:21:22.124Z,4.90
2018-04-02T03:25:24.667Z,4.90
2018-04-02T03:29:27.182Z,4.90
2018-04-02T03:33:30.562Z,4.80
2018-04-02T03:37:33.092Z,4.70
2018-04-02T03:41:35.623Z,4.70
2018-04-02T03:45:38.939Z,4.70
2018-04-02T03:49:41.465Z,4.60
2018-04-02T03:53:44.006Z,4.60
2018-04-02T03:57:46.541Z,4.60
2018-04-02T04:01:49.090Z,4.50
2018-04-02T04:05:52.386Z,4.50
2018-04-02T04:09:55.696Z,4.40
2018-04-02T04:13:58.985Z,4.40
2018-04-02T04:18:01.513Z,4.40
2018-04-02T04:22:04.045Z,4.40
2018-04-02T04:26:06.578Z,4.40
2018-04-02T04:30:09.114Z,4.40
2018-04-02T04:34:11.627Z,4.40
2018-04-02T04:38:14.928Z,4.30
2018-04-02T04:42:18.225Z,4.30
2018-04-02T04:46:21.525Z,4.30
2018-04-02T04:50:24.057Z,4.20
2018-04-02T04:54:26.585Z,4.30
2018-04-02T04:58:29.116Z,4.20
2018-04-02T05:02:31.657Z,4.30
2018-04-02T05:06:34.193Z,4.30
2018-04-02T05:10:36.722Z,4.20
2018-04-02T05:14:39.634Z,4.30
2018-04-02T05:18:42.169Z,4.30
2018-04-02T05:22:44.711Z,4.30
2018-04-02T05:26:48.014Z,4.30
2018-04-02T05:30:51.313Z,4.30
2018-04-02T05:34:53.851Z,4.20
2018-04-02T05:38:56.381Z,4.30
2018-04-02T05:42:59.675Z,4.40
2018-04-02T05:47:02.217Z,4.30
2018-04-02T05:51:04.799Z,4.40
2018-04-02T05:55:07.289Z,4.40
2018-04-02T05:59:09.820Z,4.40
2018-04-02T06:03:13.113Z,4.40
2018-04-02T06:07:15.649Z,4.40
2018-04-02T06:11:18.190Z,4.50
2018-04-02T06:15:21.480Z,4.60
2018-04-02T06:19:24.013Z,4.50
2018-04-02T06:23:26.597Z,4.60
2018-04-02T06:27:29.113Z,4.70
2018-04-02T06:31:31.687Z,4.80
2018-04-02T06:35:34.169Z,4.80
2018-04-02T06:39:36.706Z,4.90
2018-04-02T06:43:39.242Z,5.00
2018-04-02T06:47:41.777Z,5.00
2018-04-02T06:51:44.310Z,5.10
2018-04-02T06:55:46.834Z,5.20
2018-04-02T06:59:50.144Z,5.30
2018-04-02T07:03:53.441Z,5.40
2018-04-02T07:07:56.746Z,5.50
2018-04-02T07:12:00.060Z,5.60
2018-04-02T07:16:03.367Z,5.70
2018-04-02T07:20:06.651Z,5.80
2018-04-02T07:24:09.971Z,5.90
2018-04-02T07:28:13.276Z,6.10
2018-04-02T07:32:15.808Z,6.00
2018-04-02T07:36:18.344Z,6.20
2018-04-02T07:40:21.628Z,6.50
2018-04-02T07:44:24.228Z,6.50
2018-04-02T07:48:26.720Z,6.60
2018-04-02T07:52:29.258Z,6.70
2018-04-02T07:56:31.797Z,6.80
2018-04-02T08:00:34.313Z,6.80
2018-04-02T08:04:36.862Z,6.90
2018-04-02T08:08:39.435Z,6.90
2018-04-02T08:12:41.948Z,7.00
2018-04-02T08:16:44.481Z,7.10
2018-04-02T08:20:47.000Z,7.30
2018-04-02T08:24:49.541Z,7.40
2018-04-02T08:28:52.080Z,7.60
2018-04-02T08:32:54.614Z,7.80
2018-04-02T08:36:57.155Z,8.00
2018-04-02T08:40:59.677Z,8.20
2018-04-02T08:45:02.214Z,8.50
2018-04-02T22:32:49.465Z,11.00
2018-04-02T22:36:52.023Z,11.00
2018-04-02T22:40:55.305Z,10.90
2018-04-02T22:44:57.867Z,10.90
2018-04-02T22:53:07.871Z,10.90
2018-04-02T22:57:10.397Z,10.80
2018-04-02T23:01:12.909Z,10.80
2018-04-02T23:05:15.449Z,10.80
2018-04-02T23:09:18.737Z,10.80
2018-04-02T23:13:21.384Z,10.70
2018-04-02T23:17:23.913Z,10.80
2018-04-02T23:21:26.420Z,10.70
2018-04-02T23:25:28.963Z,10.70
2018-04-02T23:29:31.487Z,10.70
2018-04-02T23:33:34.789Z,10.70
2018-04-02T23:37:38.081Z,10.60
2018-04-02T23:41:41.358Z,10.60
2018-04-02T23:45:43.885Z,10.60
2018-04-02T23:49:46.423Z,10.60
2018-04-02T23:53:48.962Z,10.60
2018-04-02T23:57:51.486Z,10.50
